createdAt,value
2022-08-14T00:00:23.580Z,2.83
2022-08-14T00:02:54.356Z,3.10
2022-08-14T00:05:25.407Z,3.10
2022-08-14T00:07:56.811Z,3.03
2022-08-14T00:10:49.786Z,3.63
2022-08-14T00:13:20.210Z,3.85
2022-08-14T00:15:50.931Z,4.10
2022-08-14T00:19:05.308Z,3.70
2022-08-14T00:21:15.627Z,3.60
2022-08-14T00:23:54.088Z,3.00
2022-08-14T00:26:25.450Z,3.17
2022-08-14T00:28:56.078Z,3.20
2022-08-14T00:31:43.958Z,3.08
2022-08-14T00:34:37.376Z,6.00
2022-08-14T00:37:07.307Z,8.02
2022-08-14T00:39:38.364Z,7.95
2022-08-14T00:42:21.438Z,7.68
2022-08-14T00:44:59.578Z,6.55
2022-08-14T00:47:30.753Z,7.40
2022-08-14T00:50:17.779Z,6.35
2022-08-14T00:52:53.360Z,6.43
2022-08-14T00:55:24.232Z,7.68
2022-08-14T00:58:12.421Z,5.55
2022-08-14T01:00:50.918Z,4.90
2022-08-14T01:03:24.010Z,5.75
2022-08-14T01:05:55.856Z,5.65
2022-08-14T01:08:52.450Z,4.07
2022-08-14T01:11:21.262Z,3.50
2022-08-14T01:13:56.131Z,3.70
2022-08-14T01:16:34.504Z,5.32
2022-08-14T01:19:23.138Z,6.95
2022-08-14T01:21:54.045Z,7.80
2022-08-14T01:24:30.784Z,9.48
2022-08-14T01:27:07.204Z,8.98
2022-08-14T01:29:58.733Z,6.68
2022-08-14T01:32:30.030Z,3.65
2022-08-14T01:35:19.193Z,3.10
2022-08-14T01:37:56.147Z,4.50
2022-08-14T01:40:36.956Z,4.40
2022-08-14T01:43:21.963Z,3.65
2022-08-14T01:46:06.176Z,3.65
2022-08-14T01:48:37.891Z,3.33
2022-08-14T01:51:19.463Z,3.30
2022-08-14T01:53:58.117Z,3.22
2022-08-14T01:59:22.119Z,3.05
2022-08-14T02:01:59.310Z,2.72
2022-08-14T02:04:54.592Z,3.22
2022-08-14T02:07:44.845Z,3.05
2022-08-14T02:10:16.253Z,3.38
2022-08-14T02:12:56.842Z,4.18
2022-08-14T02:15:28.069Z,3.75
2022-08-14T02:17:58.675Z,4.40
2022-08-14T02:20:36.173Z,3.50
2022-08-14T02:23:08.183Z,3.20
2022-08-14T02:25:39.704Z,3.22
2022-08-14T02:28:25.937Z,3.35
2022-08-14T02:31:02.962Z,3.50
2022-08-14T02:33:34.507Z,3.55
2022-08-14T02:37:02.486Z,3.22
2022-08-14T02:39:01.402Z,2.80
2022-08-14T02:41:36.771Z,3.35
2022-08-14T02:44:11.966Z,4.20
2022-08-14T02:46:49.728Z,3.25
2022-08-14T02:49:25.350Z,3.65
2022-08-14T02:51:56.848Z,3.00
2022-08-14T02:54:29.072Z,4.10
2022-08-14T02:57:15.982Z,3.92
2022-08-14T02:59:53.096Z,3.72
2022-08-14T03:02:49.148Z,3.28
2022-08-14T03:05:13.581Z,3.10
2022-08-14T03:07:45.878Z,3.13
2022-08-14T03:10:25.544Z,3.20
2022-08-14T03:12:58.399Z,2.97
2022-08-14T03:15:28.612Z,2.72
2022-08-14T03:17:58.998Z,3.42
2022-08-14T03:20:31.248Z,3.92
2022-08-14T03:23:02.959Z,4.10
2022-08-14T03:25:37.808Z,2.95
2022-08-14T03:28:14.871Z,2.90
2022-08-14T03:31:00.416Z,2.75
2022-08-14T03:33:38.042Z,2.95
2022-08-14T03:37:52.216Z,3.50
2022-08-14T03:39:15.691Z,3.13
2022-08-14T03:42:00.044Z,3.08
2022-08-14T03:45:26.232Z,3.15
2022-08-14T03:47:46.119Z,2.60
2022-08-14T03:50:27.474Z,3.30
2022-08-14T03:53:00.682Z,3.08
2022-08-14T03:55:31.979Z,3.25
2022-08-14T03:58:04.082Z,2.85
2022-08-14T04:00:42.856Z,2.83
2022-08-14T04:03:23.543Z,3.72
2022-08-14T04:05:56.386Z,3.10
2022-08-14T04:08:30.792Z,3.95
2022-08-14T04:11:07.843Z,4.20
2022-08-14T04:13:43.431Z,4.13
2022-08-14T04:16:22.331Z,4.32
2022-08-14T04:18:58.888Z,4.95
2022-08-14T04:21:39.836Z,4.28
2022-08-14T04:24:21.223Z,4.88
2022-08-14T04:26:56.297Z,4.50
2022-08-14T04:29:27.100Z,2.90
2022-08-14T04:33:10.256Z,2.50
2022-08-14T04:34:52.091Z,4.07
2022-08-14T04:37:45.241Z,3.95
2022-08-14T04:40:35.319Z,3.05
2022-08-14T04:43:38.337Z,2.92
2022-08-14T04:46:56.378Z,2.42
2022-08-14T04:49:08.154Z,4.60
2022-08-14T04:51:46.690Z,3.70
2022-08-14T04:54:18.741Z,3.10
2022-08-14T04:59:19.090Z,3.08
2022-08-14T05:01:52.815Z,3.60
2022-08-14T05:04:26.063Z,3.45
2022-08-14T05:06:56.757Z,3.53
2022-08-14T05:09:29.161Z,4.03
2022-08-14T05:13:08.354Z,3.40
2022-08-14T05:14:55.542Z,3.60
2022-08-14T05:17:32.005Z,3.33
2022-08-14T05:21:05.048Z,3.40
2022-08-14T05:23:05.598Z,3.78
2022-08-14T05:25:41.379Z,3.47
2022-08-14T05:28:20.685Z,3.40
2022-08-14T05:30:53.373Z,4.15
2022-08-14T05:33:26.919Z,3.53
2022-08-14T05:36:03.603Z,3.80
2022-08-14T05:38:38.131Z,3.60
2022-08-14T05:41:10.646Z,4.03
2022-08-14T05:43:42.531Z,4.07
2022-08-14T05:46:16.338Z,3.50
2022-08-14T05:48:51.515Z,4.53
2022-08-14T05:51:23.678Z,4.70
2022-08-14T05:54:01.404Z,4.50
2022-08-14T05:56:43.185Z,5.03
2022-08-14T05:59:17.419Z,4.78
2022-08-14T06:01:50.494Z,4.43
2022-08-14T06:04:22.370Z,4.20
2022-08-14T06:06:54.931Z,5.03
2022-08-14T06:09:28.479Z,5.13
2022-08-14T06:12:05.606Z,4.70
2022-08-14T06:14:39.353Z,3.92
2022-08-14T06:17:09.495Z,5.07
2022-08-14T06:19:46.274Z,4.38
2022-08-14T06:22:19.270Z,3.90
2022-08-14T06:24:50.200Z,3.83
2022-08-14T06:27:21.392Z,3.90
2022-08-14T06:29:54.035Z,4.40
2022-08-14T06:32:37.716Z,4.07
2022-08-14T06:35:13.470Z,4.97
2022-08-14T06:37:46.950Z,4.15
2022-08-14T06:40:27.890Z,4.47
2022-08-14T06:43:03.620Z,4.20
2022-08-14T06:45:35.027Z,4.00
2022-08-14T06:48:17.329Z,5.00
2022-08-14T06:50:49.170Z,3.88
2022-08-14T06:53:20.953Z,4.03
2022-08-14T06:55:58.103Z,5.90
2022-08-14T06:58:31.382Z,3.88
2022-08-14T07:01:26.843Z,3.58
2022-08-14T07:04:23.643Z,4.68
2022-08-14T07:06:59.528Z,5.13
2022-08-14T07:09:43.840Z,3.85
2022-08-14T07:12:54.556Z,4.57
2022-08-14T07:15:11.776Z,5.32
2022-08-14T07:17:51.994Z,4.60
2022-08-14T07:20:30.930Z,5.45
2022-08-14T07:23:08.547Z,4.75
2022-08-14T07:25:43.905Z,4.50
2022-08-14T07:28:21.468Z,4.72
2022-08-14T07:33:50.715Z,5.30
2022-08-14T07:36:27.090Z,4.93
2022-08-14T07:39:02.814Z,6.40
2022-08-14T07:41:35.899Z,5.00
2022-08-14T07:44:28.769Z,3.50
2022-08-14T07:46:57.014Z,2.97
2022-08-14T07:49:29.808Z,3.72
2022-08-14T07:52:03.917Z,3.80
2022-08-14T07:54:34.554Z,4.68
2022-08-14T07:59:44.406Z,5.40
2022-08-14T08:02:20.551Z,5.53
2022-08-14T08:04:59.324Z,6.30
2022-08-14T08:07:32.387Z,4.55
2022-08-14T08:11:01.322Z,4.75
2022-08-14T08:13:24.110Z,6.15
2022-08-14T08:16:00.597Z,5.38
2022-08-14T08:18:31.256Z,5.75
2022-08-14T08:21:04.583Z,5.65
2022-08-14T08:23:40.819Z,6.43
2022-08-14T08:26:21.582Z,5.65
2022-08-14T08:29:00.030Z,5.30
2022-08-14T08:31:33.042Z,6.40
2022-08-14T08:34:14.419Z,5.72
2022-08-14T08:36:49.049Z,4.00
2022-08-14T08:39:22.524Z,4.38
2022-08-14T08:41:53.979Z,4.07
2022-08-14T08:44:34.538Z,5.85
2022-08-14T08:47:11.242Z,5.65
2022-08-14T08:49:52.876Z,5.40
2022-08-14T08:52:31.260Z,5.57
2022-08-14T08:55:04.569Z,5.60
2022-08-14T08:57:38.124Z,5.10
2022-08-14T09:00:25.042Z,5.22
2022-08-14T09:03:03.355Z,5.65
2022-08-14T09:05:37.062Z,5.43
2022-08-14T09:08:30.531Z,5.78
2022-08-14T09:11:19.443Z,4.80
2022-08-14T09:13:54.141Z,4.65
2022-08-14T09:16:26.635Z,5.40
2022-08-14T09:18:57.534Z,5.82
2022-08-14T09:21:31.068Z,5.85
2022-08-14T09:24:26.453Z,5.22
2022-08-14T09:26:54.026Z,6.05
2022-08-14T09:29:24.537Z,6.03
2022-08-14T09:32:04.475Z,6.03
2022-08-14T09:35:14.293Z,5.53
2022-08-14T09:38:07.467Z,5.25
2022-08-14T09:41:17.779Z,4.78
2022-08-14T09:43:55.259Z,4.43
2022-08-14T09:46:29.658Z,4.28
2022-08-14T09:49:16.538Z,4.72
2022-08-14T09:51:51.900Z,4.70
2022-08-14T09:54:41.733Z,4.00
2022-08-14T09:57:15.132Z,3.78
2022-08-14T09:59:50.386Z,4.18
2022-08-14T10:02:35.215Z,4.60
2022-08-14T10:05:11.168Z,3.95
2022-08-14T10:07:53.501Z,3.83
2022-08-14T10:10:40.298Z,4.10
2022-08-14T10:13:28.004Z,4.78
2022-08-14T10:16:25.731Z,3.88
2022-08-14T10:19:10.031Z,4.85
2022-08-14T10:21:58.218Z,4.38
2022-08-14T10:24:42.124Z,4.38
2022-08-14T10:27:17.918Z,5.15
2022-08-14T10:29:58.322Z,4.85
2022-08-14T10:32:40.385Z,5.07
2022-08-14T10:35:23.187Z,4.68
2022-08-14T10:38:02.880Z,4.70
2022-08-14T10:40:44.801Z,4.05
2022-08-14T10:43:31.931Z,4.63
2022-08-14T10:46:03.590Z,4.55
2022-08-14T10:49:04.863Z,4.63
2022-08-14T10:51:39.677Z,4.20
2022-08-14T10:54:26.221Z,4.60
2022-08-14T10:57:22.953Z,4.63
2022-08-14T10:59:56.819Z,4.43
2022-08-14T11:02:50.316Z,4.47
2022-08-14T11:05:28.550Z,4.75
2022-08-14T11:08:01.945Z,4.10
2022-08-14T11:10:47.630Z,4.30
2022-08-14T11:13:31.175Z,4.65
2022-08-14T11:16:06.101Z,4.43
2022-08-14T11:18:40.396Z,4.85
2022-08-14T11:21:11.227Z,4.53
2022-08-14T11:23:44.105Z,4.18
2022-08-14T11:26:16.782Z,4.70
2022-08-14T11:28:50.667Z,4.07
2022-08-14T11:31:25.085Z,4.20
2022-08-14T11:33:59.304Z,3.67
2022-08-14T11:36:57.040Z,3.85
2022-08-14T11:39:34.239Z,4.25
2022-08-14T11:43:07.948Z,4.32
2022-08-14T11:45:01.311Z,4.10
2022-08-14T11:47:43.954Z,4.03
2022-08-14T11:53:09.385Z,4.72
2022-08-14T11:55:44.159Z,5.05
2022-08-14T11:58:24.195Z,4.38
2022-08-14T12:01:05.109Z,5.25
2022-08-14T12:03:46.832Z,5.07
2022-08-14T12:06:29.827Z,4.78
2022-08-14T12:09:14.835Z,4.45
2022-08-14T12:11:46.753Z,4.85
2022-08-14T12:14:30.118Z,4.40
2022-08-14T12:17:12.331Z,3.88
2022-08-14T12:19:56.861Z,4.30
2022-08-14T12:22:42.325Z,3.97
2022-08-14T12:27:54.653Z,4.05
2022-08-14T12:30:43.280Z,3.90
2022-08-14T12:33:32.947Z,3.70
2022-08-14T12:36:09.231Z,4.18
2022-08-14T12:38:43.685Z,3.50
2022-08-14T12:41:21.919Z,3.65
2022-08-14T12:44:08.453Z,3.63
2022-08-14T12:46:46.848Z,3.15
2022-08-14T12:49:19.972Z,3.38
2022-08-14T12:52:02.263Z,3.13
2022-08-14T12:54:32.686Z,3.10
2022-08-14T12:57:08.346Z,2.90
2022-08-14T12:59:43.202Z,3.05
2022-08-14T13:02:29.659Z,2.47
2022-08-14T13:05:00.432Z,2.60
2022-08-14T13:07:32.714Z,2.47
2022-08-14T13:10:45.814Z,2.78
2022-08-14T13:13:15.508Z,2.67
2022-08-14T13:15:47.505Z,2.80
2022-08-14T13:18:18.849Z,2.97
2022-08-14T13:20:57.855Z,2.92
2022-08-14T13:23:37.405Z,2.78
2022-08-14T13:26:09.369Z,3.05
2022-08-14T13:29:01.465Z,2.83
2022-08-14T13:31:35.633Z,3.10
2022-08-14T13:34:07.284Z,2.50
2022-08-14T13:36:54.469Z,3.00
2022-08-14T13:39:30.802Z,2.97
2022-08-14T13:42:13.483Z,2.80
2022-08-14T13:44:45.406Z,3.03
2022-08-14T13:47:16.135Z,3.13
2022-08-14T13:49:57.427Z,3.10
2022-08-14T13:52:51.770Z,2.95
2022-08-14T13:55:29.094Z,2.75
2022-08-14T13:58:04.428Z,2.72
2022-08-14T14:00:52.118Z,2.28
2022-08-14T14:03:30.211Z,2.20
2022-08-14T14:06:03.730Z,1.80
2022-08-14T14:08:45.816Z,2.20
2022-08-14T14:11:25.190Z,2.28
2022-08-14T14:14:01.507Z,2.25
2022-08-14T14:16:31.879Z,1.92
2022-08-14T14:19:08.807Z,1.90
2022-08-14T14:21:41.777Z,1.65
2022-08-14T14:24:15.215Z,1.80
2022-08-14T14:26:51.109Z,2.10
2022-08-14T14:29:24.228Z,1.90
2022-08-14T14:31:59.019Z,2.00
2022-08-14T14:34:35.204Z,1.92
2022-08-14T14:37:06.911Z,2.05
2022-08-14T14:40:52.590Z,2.00
2022-08-14T14:42:32.424Z,2.10
2022-08-14T14:45:16.938Z,1.88
2022-08-14T14:47:59.212Z,2.00
2022-08-14T14:50:29.839Z,1.90
2022-08-14T14:53:13.054Z,1.80
2022-08-14T14:56:46.897Z,1.98
2022-08-14T14:58:35.946Z,1.80
2022-08-14T15:01:10.373Z,2.13
2022-08-14T15:03:45.130Z,2.15
2022-08-14T15:06:17.697Z,2.17
2022-08-14T15:08:55.719Z,2.10
2022-08-14T15:11:30.498Z,2.03
2022-08-14T15:14:02.874Z,2.00
2022-08-14T15:16:52.921Z,2.17
2022-08-14T15:19:24.422Z,2.03
2022-08-14T15:21:55.206Z,2.45
2022-08-14T15:24:26.919Z,2.20
2022-08-14T15:27:00.977Z,2.40
2022-08-14T15:29:31.680Z,2.20
2022-08-14T15:32:01.716Z,2.97
2022-08-14T15:34:45.344Z,3.28
2022-08-14T15:37:23.297Z,3.78
2022-08-14T15:39:53.866Z,2.50
2022-08-14T15:42:25.663Z,2.90
2022-08-14T15:45:01.430Z,3.00
2022-08-14T15:47:33.849Z,2.60
2022-08-14T15:50:11.457Z,2.50
2022-08-14T15:52:42.972Z,2.65
2022-08-14T15:55:16.808Z,2.45
2022-08-14T15:58:01.713Z,2.63
2022-08-14T16:00:54.703Z,2.55
2022-08-14T16:03:34.701Z,2.72
2022-08-14T16:06:15.680Z,2.40
2022-08-14T16:08:57.654Z,2.33
2022-08-14T16:11:33.147Z,2.38
2022-08-14T16:14:06.842Z,2.30
2022-08-14T16:16:51.749Z,2.30
2022-08-14T16:19:29.056Z,2.30
2022-08-14T16:22:57.367Z,2.40
2022-08-14T16:25:09.402Z,2.40
2022-08-14T16:27:41.357Z,2.50
2022-08-14T16:30:20.782Z,2.35
2022-08-14T16:33:04.133Z,2.22
2022-08-14T16:35:59.502Z,2.28
2022-08-14T16:38:45.688Z,2.30
2022-08-14T16:41:23.094Z,2.20
2022-08-14T16:44:23.204Z,2.00
2022-08-14T16:47:05.467Z,2.13
2022-08-14T16:50:04.465Z,2.03
2022-08-14T16:52:44.255Z,1.90
2022-08-14T16:55:17.829Z,2.17
2022-08-14T16:57:58.916Z,1.85
2022-08-14T17:00:44.304Z,2.20
2022-08-14T17:03:16.384Z,2.70
2022-08-14T17:05:46.865Z,2.20
2022-08-14T17:08:42.836Z,2.33
2022-08-14T17:11:14.390Z,2.22
2022-08-14T17:13:58.155Z,2.25
2022-08-14T17:16:39.695Z,2.50
2022-08-14T17:19:14.241Z,2.25
2022-08-14T17:21:47.881Z,2.40
2022-08-14T17:24:57.229Z,2.10
2022-08-14T17:27:18.131Z,2.38
2022-08-14T17:29:56.403Z,2.50
2022-08-14T17:32:44.112Z,2.22
2022-08-14T17:35:17.144Z,2.20
2022-08-14T17:37:56.051Z,2.38
2022-08-14T17:40:31.751Z,2.75
2022-08-14T17:43:02.782Z,2.45
2022-08-14T17:45:41.610Z,2.53
2022-08-14T17:49:13.847Z,2.80
2022-08-14T17:51:30.066Z,2.17
2022-08-14T17:54:02.356Z,2.72
2022-08-14T17:56:38.650Z,2.58
2022-08-14T17:59:08.966Z,2.20
2022-08-14T18:01:45.913Z,2.30
2022-08-14T18:04:24.971Z,2.00
2022-08-14T18:07:49.263Z,2.15
2022-08-14T18:10:55.306Z,2.10
2022-08-14T18:12:53.015Z,2.03
2022-08-14T18:15:36.921Z,2.20
2022-08-14T18:18:10.301Z,2.67
2022-08-14T18:21:39.966Z,2.30
2022-08-14T18:23:32.746Z,2.40
2022-08-14T18:26:37.573Z,2.40
2022-08-14T18:29:07.630Z,2.55
2022-08-14T18:31:45.596Z,3.00
2022-08-14T18:34:32.117Z,2.35
2022-08-14T18:37:17.610Z,2.42
2022-08-14T18:40:02.863Z,2.72
2022-08-14T18:42:36.879Z,2.55
2022-08-14T18:45:12.841Z,2.80
2022-08-14T18:50:52.794Z,3.10
2022-08-14T18:53:25.474Z,3.00
2022-08-14T18:56:09.954Z,3.13
2022-08-14T18:58:57.017Z,2.72
2022-08-14T19:01:31.228Z,2.95
2022-08-14T19:04:04.091Z,3.10
2022-08-14T19:06:41.806Z,2.90
2022-08-14T19:09:51.038Z,2.95
2022-08-14T19:12:54.979Z,3.05
2022-08-14T19:18:26.677Z,3.20
2022-08-14T19:21:13.174Z,3.38
2022-08-14T19:23:59.333Z,3.05
2022-08-14T19:26:36.174Z,3.10
2022-08-14T19:29:39.785Z,3.17
2022-08-14T19:32:40.454Z,3.35
2022-08-14T19:35:48.855Z,2.70
2022-08-14T19:38:46.145Z,3.00
2022-08-14T19:41:17.398Z,3.10
2022-08-14T19:43:56.110Z,3.08
2022-08-14T19:46:38.962Z,2.90
2022-08-14T19:50:07.955Z,2.58
2022-08-14T19:52:24.646Z,2.63
2022-08-14T19:54:56.059Z,2.42
2022-08-14T19:57:29.032Z,2.70
2022-08-14T20:00:28.093Z,2.30
2022-08-14T20:03:11.706Z,2.45
2022-08-14T20:05:47.450Z,2.67
2022-08-14T20:09:05.043Z,2.70
2022-08-14T20:12:00.168Z,2.80
2022-08-14T20:17:05.948Z,3.03
2022-08-14T20:19:41.732Z,2.65
2022-08-14T20:22:37.193Z,2.55
2022-08-14T20:25:21.588Z,2.75
2022-08-14T20:27:59.279Z,2.60
2022-08-14T20:30:33.777Z,2.78
2022-08-14T20:33:10.910Z,2.67
2022-08-14T20:35:53.687Z,2.92
2022-08-14T20:38:33.345Z,3.13
2022-08-14T20:41:12.307Z,2.92
2022-08-14T20:44:06.654Z,2.47
2022-08-14T20:46:39.527Z,2.95
2022-08-14T20:49:18.744Z,2.47
2022-08-14T20:51:59.429Z,2.60
2022-08-14T20:54:36.917Z,2.58
2022-08-14T20:57:19.530Z,3.28
2022-08-14T20:59:57.263Z,3.90
2022-08-14T21:02:34.727Z,3.95
2022-08-14T21:05:20.237Z,4.10
2022-08-14T21:07:51.751Z,4.20
2022-08-14T21:10:33.093Z,3.40
2022-08-14T21:13:25.907Z,3.08
2022-08-14T21:15:58.718Z,3.03
2022-08-14T21:18:31.839Z,3.75
2022-08-14T21:21:08.437Z,2.90
2022-08-14T21:26:50.681Z,2.90
2022-08-14T21:29:25.302Z,2.83
2022-08-14T21:31:56.795Z,2.90
2022-08-14T21:34:31.267Z,3.53
2022-08-14T21:37:09.726Z,3.42
2022-08-14T21:39:40.297Z,2.97
2022-08-14T21:42:13.692Z,3.33
2022-08-14T21:47:23.627Z,2.67
2022-08-14T21:49:56.361Z,3.20
2022-08-14T21:52:51.584Z,3.15
2022-08-14T21:55:23.928Z,3.30
2022-08-14T21:58:04.062Z,3.67
2022-08-14T22:00:44.424Z,3.22
2022-08-14T22:03:24.281Z,3.40
2022-08-14T22:05:58.555Z,3.45
2022-08-14T22:08:32.099Z,3.47
2022-08-14T22:11:03.677Z,2.90
2022-08-14T22:13:35.132Z,3.22
2022-08-14T22:17:01.943Z,3.38
2022-08-14T22:19:10.706Z,2.85
2022-08-14T22:21:46.699Z,2.67
2022-08-14T22:24:38.293Z,3.08
2022-08-14T22:27:12.535Z,3.55
2022-08-14T22:29:44.253Z,3.53
2022-08-14T22:32:14.400Z,3.63
2022-08-14T22:34:48.637Z,3.58
2022-08-14T22:37:18.726Z,3.47
2022-08-14T22:40:54.894Z,3.20
2022-08-14T22:42:57.364Z,3.45
2022-08-14T22:45:36.278Z,4.07
2022-08-14T22:48:11.521Z,3.85
2022-08-14T22:50:53.187Z,3.67
2022-08-14T22:53:23.900Z,3.60
2022-08-14T22:56:00.159Z,3.60
2022-08-14T22:58:34.931Z,3.28
2022-08-14T23:01:11.897Z,3.70
2022-08-14T23:03:43.879Z,3.97
2022-08-14T23:07:02.435Z,3.95
2022-08-14T23:09:36.040Z,3.60
2022-08-14T23:11:58.288Z,4.28
2022-08-14T23:14:31.037Z,4.60
2022-08-14T23:17:02.035Z,4.43
2022-08-14T23:19:35.774Z,4.50
2022-08-14T23:22:10.273Z,3.88
2022-08-14T23:24:49.625Z,3.63
2022-08-14T23:27:20.860Z,3.58
2022-08-14T23:29:58.655Z,3.03
2022-08-14T23:32:30.294Z,3.35
2022-08-14T23:35:02.099Z,3.35
2022-08-14T23:37:32.531Z,2.95
2022-08-14T23:40:03.160Z,3.28
2022-08-14T23:43:12.441Z,3.38
2022-08-14T23:45:50.219Z,3.28
2022-08-14T23:48:24.821Z,3.55
2022-08-14T23:51:00.182Z,3.80
2022-08-14T23:53:47.964Z,3.95
2022-08-14T23:56:33.289Z,4.07
2022-08-14T23:59:07.806Z,4.40
